sensor_id;sensor_type;location;lat;lon;timestamp;P1;durP1;ratioP1;P2;durP2;ratioP2
2438;SDS011;14509;47.992;7.848;2022-07-23T00:01:48;6.80;;;6.20;;
2438;SDS011;14509;47.992;7.848;2022-07-23T00:03:50;8.33;;;7.63;;
2438;SDS011;14509;47.992;7.848;2022-07-23T00:05:54;7.90;;;7.10;;
2438;SDS011;14509;47.992;7.848;2022-07-23T00:07:56;11.03;;;7.40;;
2438;SDS011;14509;47.992;7.848;2022-07-23T00:09:58;7.53;;;6.73;;
2438;SDS011;14509;47.992;7.848;2022-07-23T00:11:59;7.00;;;6.20;;
2438;SDS011;14509;47.992;7.848;2022-07-23T00:14:01;7.10;;;6.50;;
2438;SDS011;14509;47.992;7.848;2022-07-23T00:16:04;8.97;;;7.63;;
2438;SDS011;14509;47.992;7.848;2022-07-23T00:18:07;6.90;;;6.20;;
2438;SDS011;14509;47.992;7.848;2022-07-23T00:20:10;7.27;;;6.57;;
2438;SDS011;14509;47.992;7.848;2022-07-23T00:22:12;6.67;;;5.80;;
2438;SDS011;14509;47.992;7.848;2022-07-23T00:24:14;6.70;;;6.10;;
2438;SDS011;14509;47.992;7.848;2022-07-23T00:26:16;7.27;;;6.10;;
2438;SDS011;14509;47.992;7.848;2022-07-23T00:28:18;6.73;;;6.13;;
2438;SDS011;14509;47.992;7.848;2022-07-23T00:30:20;6.27;;;5.60;;
2438;SDS011;14509;47.992;7.848;2022-07-23T00:32:22;5.60;;;5.10;;
2438;SDS011;14509;47.992;7.848;2022-07-23T00:34:25;6.07;;;5.50;;
2438;SDS011;14509;47.992;7.848;2022-07-23T00:36:27;7.03;;;5.77;;
2438;SDS011;14509;47.992;7.848;2022-07-23T00:38:31;6.07;;;5.57;;
2438;SDS011;14509;47.992;7.848;2022-07-23T00:40:33;5.70;;;5.20;;
2438;SDS011;14509;47.992;7.848;2022-07-23T00:42:35;5.70;;;5.20;;
2438;SDS011;14509;47.992;7.848;2022-07-23T00:44:37;5.63;;;5.13;;
2438;SDS011;14509;47.992;7.848;2022-07-23T00:46:44;5.93;;;5.23;;
2438;SDS011;14509;47.992;7.848;2022-07-23T00:48:47;6.60;;;5.13;;
2438;SDS011;14509;47.992;7.848;2022-07-23T00:50:50;5.57;;;5.07;;
2438;SDS011;14509;47.992;7.848;2022-07-23T00:52:52;6.57;;;5.90;;
2438;SDS011;14509;47.992;7.848;2022-07-23T00:54:54;6.30;;;5.43;;
2438;SDS011;14509;47.992;7.848;2022-07-23T00:56:56;6.03;;;5.50;;
2438;SDS011;14509;47.992;7.848;2022-07-23T00:58:59;6.03;;;5.50;;
2438;SDS011;14509;47.992;7.848;2022-07-23T01:01:01;6.73;;;5.70;;
2438;SDS011;14509;47.992;7.848;2022-07-23T01:03:03;6.53;;;5.93;;
2438;SDS011;14509;47.992;7.848;2022-07-23T01:05:06;6.27;;;5.60;;
2438;SDS011;14509;47.992;7.848;2022-07-23T01:07:10;8.90;;;6.63;;
2438;SDS011;14509;47.992;7.848;2022-07-23T01:09:12;6.20;;;5.70;;
2438;SDS011;14509;47.992;7.848;2022-07-23T01:11:14;6.30;;;5.80;;
2438;SDS011;14509;47.992;7.848;2022-07-23T01:13:17;7.50;;;6.70;;
2438;SDS011;14509;47.992;7.848;2022-07-23T01:15:19;7.50;;;6.43;;
2438;SDS011;14509;47.992;7.848;2022-07-23T01:17:22;7.57;;;6.97;;
2438;SDS011;14509;47.992;7.848;2022-07-23T01:19:24;7.50;;;6.30;;
2438;SDS011;14509;47.992;7.848;2022-07-23T01:21:26;6.47;;;5.97;;
2438;SDS011;14509;47.992;7.848;2022-07-23T01:23:30;7.23;;;6.53;;
2438;SDS011;14509;47.992;7.848;2022-07-23T01:25:33;9.87;;;7.13;;
2438;SDS011;14509;47.992;7.848;2022-07-23T01:27:37;7.47;;;6.87;;
2438;SDS011;14509;47.992;7.848;2022-07-23T01:29:39;7.47;;;6.83;;
2438;SDS011;14509;47.992;7.848;2022-07-23T01:31:47;7.07;;;6.40;;
2438;SDS011;14509;47.992;7.848;2022-07-23T01:33:49;7.67;;;6.17;;
2438;SDS011;14509;47.992;7.848;2022-07-23T01:35:51;7.40;;;6.70;;
2438;SDS011;14509;47.992;7.848;2022-07-23T01:37:57;8.80;;;7.03;;
2438;SDS011;14509;47.992;7.848;2022-07-23T01:40:00;8.60;;;7.10;;
2438;SDS011;14509;47.992;7.848;2022-07-23T01:42:02;10.30;;;6.90;;
2438;SDS011;14509;47.992;7.848;2022-07-23T01:44:06;8.90;;;6.87;;
2438;SDS011;14509;47.992;7.848;2022-07-23T01:46:08;11.83;;;7.50;;
2438;SDS011;14509;47.992;7.848;2022-07-23T01:48:15;9.70;;;8.37;;
2438;SDS011;14509;47.992;7.848;2022-07-23T01:50:31;8.67;;;7.70;;
2438;SDS011;14509;47.992;7.848;2022-07-23T01:52:44;9.90;;;7.97;;
2438;SDS011;14509;47.992;7.848;2022-07-23T01:54:46;9.00;;;7.97;;
2438;SDS011;14509;47.992;7.848;2022-07-23T01:56:49;8.80;;;7.67;;
2438;SDS011;14509;47.992;7.848;2022-07-23T01:58:51;10.93;;;8.90;;
2438;SDS011;14509;47.992;7.848;2022-07-23T02:00:54;10.10;;;7.97;;
2438;SDS011;14509;47.992;7.848;2022-07-23T02:02:56;11.67;;;8.87;;
2438;SDS011;14509;47.992;7.848;2022-07-23T02:04:58;8.60;;;7.70;;
2438;SDS011;14509;47.992;7.848;2022-07-23T02:07:00;8.23;;;7.43;;
2438;SDS011;14509;47.992;7.848;2022-07-23T02:09:02;16.07;;;8.47;;
2438;SDS011;14509;47.992;7.848;2022-07-23T02:11:04;8.33;;;7.30;;
2438;SDS011;14509;47.992;7.848;2022-07-23T02:13:08;7.90;;;6.77;;
2438;SDS011;14509;47.992;7.848;2022-07-23T02:15:10;7.10;;;6.40;;
2438;SDS011;14509;47.992;7.848;2022-07-23T02:17:13;8.57;;;7.23;;
2438;SDS011;14509;47.992;7.848;2022-07-23T02:19:15;9.83;;;7.43;;
2438;SDS011;14509;47.992;7.848;2022-07-23T02:21:17;7.77;;;6.87;;
2438;SDS011;14509;47.992;7.848;2022-07-23T02:23:18;8.00;;;7.20;;
2438;SDS011;14509;47.992;7.848;2022-07-23T02:25:20;6.93;;;6.23;;
2438;SDS011;14509;47.992;7.848;2022-07-23T02:27:22;7.90;;;7.10;;
2438;SDS011;14509;47.992;7.848;2022-07-23T02:29:26;7.87;;;7.07;;
2438;SDS011;14509;47.992;7.848;2022-07-23T02:31:28;8.17;;;7.37;;
2438;SDS011;14509;47.992;7.848;2022-07-23T02:33:31;8.10;;;7.30;;
2438;SDS011;14509;47.992;7.848;2022-07-23T02:35:33;8.97;;;7.10;;
2438;SDS011;14509;47.992;7.848;2022-07-23T02:37:36;8.40;;;7.37;;
2438;SDS011;14509;47.992;7.848;2022-07-23T02:39:38;8.23;;;7.43;;
2438;SDS011;14509;47.992;7.848;2022-07-23T02:41:40;9.00;;;7.50;;
2438;SDS011;14509;47.992;7.848;2022-07-23T02:43:42;7.70;;;6.67;;
2438;SDS011;14509;47.992;7.848;2022-07-23T02:45:47;7.23;;;6.57;;
2438;SDS011;14509;47.992;7.848;2022-07-23T02:47:49;7.80;;;7.10;;
2438;SDS011;14509;47.992;7.848;2022-07-23T02:49:51;7.57;;;6.50;;
2438;SDS011;14509;47.992;7.848;2022-07-23T02:51:53;7.80;;;6.90;;
2438;SDS011;14509;47.992;7.848;2022-07-23T02:53:55;7.80;;;7.03;;
2438;SDS011;14509;47.992;7.848;2022-07-23T02:55:57;8.57;;;6.63;;
2438;SDS011;14509;47.992;7.848;2022-07-23T02:57:59;9.23;;;7.70;;
2438;SDS011;14509;47.992;7.848;2022-07-23T03:00:02;7.40;;;6.70;;
2438;SDS011;14509;47.992;7.848;2022-07-23T03:02:06;8.17;;;6.90;;
2438;SDS011;14509;47.992;7.848;2022-07-23T03:04:08;7.67;;;6.97;;
2438;SDS011;14509;47.992;7.848;2022-07-23T03:06:10;11.27;;;6.87;;
2438;SDS011;14509;47.992;7.848;2022-07-23T03:08:13;8.50;;;7.60;;
2438;SDS011;14509;47.992;7.848;2022-07-23T03:10:18;8.47;;;7.60;;
2438;SDS011;14509;47.992;7.848;2022-07-23T03:12:20;8.70;;;6.83;;
2438;SDS011;14509;47.992;7.848;2022-07-23T03:14:24;7.33;;;6.63;;
2438;SDS011;14509;47.992;7.848;2022-07-23T03:16:28;8.23;;;7.30;;
2438;SDS011;14509;47.992;7.848;2022-07-23T03:18:31;8.50;;;7.70;;
2438;SDS011;14509;47.992;7.848;2022-07-23T03:20:33;8.93;;;7.93;;
2438;SDS011;14509;47.992;7.848;2022-07-23T03:22:35;9.20;;;7.30;;
2438;SDS011;14509;47.992;7.848;2022-07-23T03:24:37;11.73;;;10.53;;
2438;SDS011;14509;47.992;7.848;2022-07-23T03:27:00;8.07;;;7.30;;
2438;SDS011;14509;47.992;7.848;2022-07-23T03:29:02;7.80;;;7.10;;
2438;SDS011;14509;47.992;7.848;2022-07-23T03:31:05;7.67;;;6.87;;
2438;SDS011;14509;47.992;7.848;2022-07-23T03:33:07;8.47;;;7.67;;
2438;SDS011;14509;47.992;7.848;2022-07-23T03:35:10;9.23;;;8.33;;
2438;SDS011;14509;47.992;7.848;2022-07-23T03:37:20;8.30;;;7.50;;
2438;SDS011;14509;47.992;7.848;2022-07-23T03:39:22;8.83;;;7.90;;
2438;SDS011;14509;47.992;7.848;2022-07-23T03:41:24;10.43;;;9.37;;
2438;SDS011;14509;47.992;7.848;2022-07-23T03:43:26;9.43;;;8.53;;
2438;SDS011;14509;47.992;7.848;2022-07-23T03:45:28;9.27;;;8.37;;
2438;SDS011;14509;47.992;7.848;2022-07-23T03:47:30;9.60;;;8.60;;
2438;SDS011;14509;47.992;7.848;2022-07-23T03:49:32;9.47;;;7.80;;
2438;SDS011;14509;47.992;7.848;2022-07-23T03:51:36;8.50;;;7.80;;
2438;SDS011;14509;47.992;7.848;2022-07-23T03:53:38;8.23;;;7.50;;
2438;SDS011;14509;47.992;7.848;2022-07-23T03:55:40;9.80;;;8.33;;
2438;SDS011;14509;47.992;7.848;2022-07-23T03:57:42;9.70;;;8.23;;
2438;SDS011;14509;47.992;7.848;2022-07-23T03:59:43;9.30;;;8.47;;
2438;SDS011;14509;47.992;7.848;2022-07-23T04:01:46;10.07;;;9.07;;
2438;SDS011;14509;47.992;7.848;2022-07-23T04:03:48;10.80;;;8.80;;
2438;SDS011;14509;47.992;7.848;2022-07-23T04:05:50;8.93;;;8.03;;
2438;SDS011;14509;47.992;7.848;2022-07-23T04:07:53;8.97;;;8.07;;
2438;SDS011;14509;47.992;7.848;2022-07-23T04:09:55;9.53;;;8.53;;
2438;SDS011;14509;47.992;7.848;2022-07-23T04:11:57;11.43;;;9.17;;
2438;SDS011;14509;47.992;7.848;2022-07-23T04:13:59;10.43;;;9.43;;
2438;SDS011;14509;47.992;7.848;2022-07-23T04:16:01;9.50;;;7.77;;
2438;SDS011;14509;47.992;7.848;2022-07-23T04:18:04;11.37;;;8.47;;
2438;SDS011;14509;47.992;7.848;2022-07-23T04:20:16;8.83;;;8.00;;
2438;SDS011;14509;47.992;7.848;2022-07-23T04:22:26;10.30;;;8.40;;
2438;SDS011;14509;47.992;7.848;2022-07-23T04:24:29;8.53;;;7.67;;
2438;SDS011;14509;47.992;7.848;2022-07-23T04:26:32;9.27;;;8.37;;
2438;SDS011;14509;47.992;7.848;2022-07-23T04:28:33;9.10;;;8.17;;
2438;SDS011;14509;47.992;7.848;2022-07-23T04:30:36;9.57;;;8.70;;
2438;SDS011;14509;47.992;7.848;2022-07-23T04:32:40;15.40;;;9.47;;
2438;SDS011;14509;47.992;7.848;2022-07-23T04:34:50;8.90;;;8.00;;
2438;SDS011;14509;47.992;7.848;2022-07-23T04:36:52;10.50;;;9.57;;
2438;SDS011;14509;47.992;7.848;2022-07-23T04:38:54;9.33;;;8.43;;
2438;SDS011;14509;47.992;7.848;2022-07-23T04:40:57;8.53;;;7.70;;
2438;SDS011;14509;47.992;7.848;2022-07-23T04:42:59;9.87;;;8.57;;
2438;SDS011;14509;47.992;7.848;2022-07-23T04:45:02;11.97;;;8.67;;
2438;SDS011;14509;47.992;7.848;2022-07-23T04:47:04;9.53;;;8.33;;
2438;SDS011;14509;47.992;7.848;2022-07-23T04:49:07;9.00;;;8.10;;
2438;SDS011;14509;47.992;7.848;2022-07-23T04:51:09;8.50;;;7.60;;
2438;SDS011;14509;47.992;7.848;2022-07-23T04:53:11;8.93;;;8.07;;
2438;SDS011;14509;47.992;7.848;2022-07-23T04:55:13;10.50;;;8.93;;
2438;SDS011;14509;47.992;7.848;2022-07-23T04:57:16;8.37;;;7.57;;
2438;SDS011;14509;47.992;7.848;2022-07-23T04:59:18;8.87;;;7.97;;
2438;SDS011;14509;47.992;7.848;2022-07-23T05:01:24;9.17;;;8.30;;
2438;SDS011;14509;47.992;7.848;2022-07-23T05:03:25;8.70;;;7.90;;
2438;SDS011;14509;47.992;7.848;2022-07-23T05:05:28;7.77;;;7.03;;
2438;SDS011;14509;47.992;7.848;2022-07-23T05:07:36;7.63;;;7.03;;
2438;SDS011;14509;47.992;7.848;2022-07-23T05:09:38;9.20;;;7.30;;
2438;SDS011;14509;47.992;7.848;2022-07-23T05:11:40;8.47;;;7.67;;
2438;SDS011;14509;47.992;7.848;2022-07-23T05:13:43;8.13;;;7.43;;
2438;SDS011;14509;47.992;7.848;2022-07-23T05:15:45;8.33;;;7.47;;
2438;SDS011;14509;47.992;7.848;2022-07-23T05:17:47;8.30;;;7.40;;
2438;SDS011;14509;47.992;7.848;2022-07-23T05:19:51;8.13;;;7.50;;
2438;SDS011;14509;47.992;7.848;2022-07-23T05:21:53;11.10;;;8.30;;
2438;SDS011;14509;47.992;7.848;2022-07-23T05:23:55;8.80;;;7.80;;
2438;SDS011;14509;47.992;7.848;2022-07-23T05:25:57;8.43;;;7.17;;
2438;SDS011;14509;47.992;7.848;2022-07-23T05:28:01;8.73;;;7.93;;
2438;SDS011;14509;47.992;7.848;2022-07-23T05:30:04;8.30;;;7.60;;
2438;SDS011;14509;47.992;7.848;2022-07-23T05:32:10;7.93;;;7.17;;
2438;SDS011;14509;47.992;7.848;2022-07-23T05:34:16;8.47;;;7.67;;
2438;SDS011;14509;47.992;7.848;2022-07-23T05:36:20;9.20;;;8.03;;
2438;SDS011;14509;47.992;7.848;2022-07-23T05:38:31;9.10;;;7.50;;
2438;SDS011;14509;47.992;7.848;2022-07-23T05:40:34;7.70;;;6.90;;
2438;SDS011;14509;47.992;7.848;2022-07-23T05:42:36;14.37;;;8.50;;
2438;SDS011;14509;47.992;7.848;2022-07-23T05:44:39;9.23;;;8.03;;
2438;SDS011;14509;47.992;7.848;2022-07-23T05:46:43;8.93;;;7.97;;
2438;SDS011;14509;47.992;7.848;2022-07-23T05:48:50;7.67;;;6.97;;
2438;SDS011;14509;47.992;7.848;2022-07-23T05:51:12;8.03;;;6.67;;
2438;SDS011;14509;47.992;7.848;2022-07-23T05:53:14;8.70;;;7.80;;
2438;SDS011;14509;47.992;7.848;2022-07-23T05:55:33;7.57;;;6.87;;
2438;SDS011;14509;47.992;7.848;2022-07-23T05:57:35;7.60;;;6.90;;
2438;SDS011;14509;47.992;7.848;2022-07-23T05:59:37;7.37;;;6.60;;
2438;SDS011;14509;47.992;7.848;2022-07-23T06:01:38;7.93;;;7.17;;
2438;SDS011;14509;47.992;7.848;2022-07-23T06:03:45;9.47;;;8.67;;
2438;SDS011;14509;47.992;7.848;2022-07-23T06:05:47;8.43;;;7.37;;
2438;SDS011;14509;47.992;7.848;2022-07-23T06:07:48;8.80;;;7.13;;
2438;SDS011;14509;47.992;7.848;2022-07-23T06:09:51;10.13;;;6.40;;
2438;SDS011;14509;47.992;7.848;2022-07-23T06:11:53;8.20;;;7.40;;
2438;SDS011;14509;47.992;7.848;2022-07-23T06:13:55;8.13;;;7.33;;
2438;SDS011;14509;47.992;7.848;2022-07-23T06:16:04;8.03;;;7.23;;
2438;SDS011;14509;47.992;7.848;2022-07-23T06:18:06;8.27;;;7.47;;
2438;SDS011;14509;47.992;7.848;2022-07-23T06:20:09;8.57;;;7.77;;
2438;SDS011;14509;47.992;7.848;2022-07-23T06:22:13;10.40;;;8.23;;
2438;SDS011;14509;47.992;7.848;2022-07-23T06:24:15;7.83;;;7.13;;
2438;SDS011;14509;47.992;7.848;2022-07-23T06:26:17;9.87;;;8.10;;
2438;SDS011;14509;47.992;7.848;2022-07-23T06:28:19;8.70;;;7.90;;
2438;SDS011;14509;47.992;7.848;2022-07-23T06:30:21;7.80;;;7.00;;
2438;SDS011;14509;47.992;7.848;2022-07-23T06:32:23;9.57;;;8.67;;
2438;SDS011;14509;47.992;7.848;2022-07-23T06:34:25;8.23;;;7.40;;
2438;SDS011;14509;47.992;7.848;2022-07-23T06:36:30;9.07;;;7.90;;
2438;SDS011;14509;47.992;7.848;2022-07-23T06:38:32;9.80;;;8.37;;
2438;SDS011;14509;47.992;7.848;2022-07-23T06:40:35;9.00;;;8.13;;
2438;SDS011;14509;47.992;7.848;2022-07-23T06:42:37;9.57;;;8.60;;
2438;SDS011;14509;47.992;7.848;2022-07-23T06:44:39;12.40;;;9.37;;
2438;SDS011;14509;47.992;7.848;2022-07-23T06:46:41;9.53;;;8.60;;
2438;SDS011;14509;47.992;7.848;2022-07-23T06:48:44;10.40;;;9.40;;
2438;SDS011;14509;47.992;7.848;2022-07-23T06:50:46;10.57;;;9.23;;
2438;SDS011;14509;47.992;7.848;2022-07-23T06:52:49;10.87;;;8.67;;
2438;SDS011;14509;47.992;7.848;2022-07-23T06:54:51;7.90;;;7.20;;
2438;SDS011;14509;47.992;7.848;2022-07-23T06:56:53;8.40;;;7.43;;
2438;SDS011;14509;47.992;7.848;2022-07-23T06:58:55;9.53;;;8.33;;
2438;SDS011;14509;47.992;7.848;2022-07-23T07:00:57;11.97;;;9.10;;
2438;SDS011;14509;47.992;7.848;2022-07-23T07:02:59;9.97;;;9.00;;
2438;SDS011;14509;47.992;7.848;2022-07-23T07:05:01;9.57;;;8.63;;
2438;SDS011;14509;47.992;7.848;2022-07-23T07:07:03;8.97;;;7.77;;
2438;SDS011;14509;47.992;7.848;2022-07-23T07:09:06;10.07;;;8.80;;
2438;SDS011;14509;47.992;7.848;2022-07-23T07:11:08;9.27;;;8.47;;
2438;SDS011;14509;47.992;7.848;2022-07-23T07:13:12;7.83;;;7.13;;
2438;SDS011;14509;47.992;7.848;2022-07-23T07:15:14;10.30;;;7.33;;
2438;SDS011;14509;47.992;7.848;2022-07-23T07:17:16;8.50;;;7.70;;
2438;SDS011;14509;47.992;7.848;2022-07-23T07:19:18;9.53;;;8.77;;
2438;SDS011;14509;47.992;7.848;2022-07-23T07:21:20;10.93;;;8.17;;
2438;SDS011;14509;47.992;7.848;2022-07-23T07:23:22;9.20;;;8.20;;
2438;SDS011;14509;47.992;7.848;2022-07-23T07:25:25;9.27;;;8.33;;
2438;SDS011;14509;47.992;7.848;2022-07-23T07:27:27;9.87;;;8.80;;
2438;SDS011;14509;47.992;7.848;2022-07-23T07:29:29;9.13;;;8.23;;
2438;SDS011;14509;47.992;7.848;2022-07-23T07:31:31;8.80;;;8.10;;
2438;SDS011;14509;47.992;7.848;2022-07-23T07:33:33;8.60;;;7.80;;
2438;SDS011;14509;47.992;7.848;2022-07-23T07:35:35;9.50;;;8.40;;
2438;SDS011;14509;47.992;7.848;2022-07-23T07:37:37;9.30;;;8.50;;
2438;SDS011;14509;47.992;7.848;2022-07-23T07:39:39;8.70;;;7.90;;
2438;SDS011;14509;47.992;7.848;2022-07-23T07:41:42;8.40;;;7.47;;
2438;SDS011;14509;47.992;7.848;2022-07-23T07:43:44;10.77;;;9.47;;
2438;SDS011;14509;47.992;7.848;2022-07-23T07:45:46;9.83;;;8.30;;
2438;SDS011;14509;47.992;7.848;2022-07-23T07:47:48;9.63;;;8.63;;
2438;SDS011;14509;47.992;7.848;2022-07-23T07:49:51;9.43;;;7.70;;
2438;SDS011;14509;47.992;7.848;2022-07-23T07:51:53;7.87;;;6.90;;
2438;SDS011;14509;47.992;7.848;2022-07-23T07:53:55;9.27;;;8.37;;
2438;SDS011;14509;47.992;7.848;2022-07-23T07:55:57;9.80;;;8.87;;
2438;SDS011;14509;47.992;7.848;2022-07-23T07:58:00;9.60;;;8.27;;
2438;SDS011;14509;47.992;7.848;2022-07-23T08:00:03;10.30;;;9.00;;
2438;SDS011;14509;47.992;7.848;2022-07-23T08:02:12;9.33;;;8.43;;
2438;SDS011;14509;47.992;7.848;2022-07-23T08:04:14;11.00;;;8.33;;
2438;SDS011;14509;47.992;7.848;2022-07-23T08:06:16;9.43;;;7.87;;
2438;SDS011;14509;47.992;7.848;2022-07-23T08:08:18;8.87;;;7.97;;
2438;SDS011;14509;47.992;7.848;2022-07-23T08:10:20;8.50;;;7.70;;
2438;SDS011;14509;47.992;7.848;2022-07-23T08:12:22;8.67;;;7.90;;
2438;SDS011;14509;47.992;7.848;2022-07-23T08:14:25;9.57;;;8.07;;
2438;SDS011;14509;47.992;7.848;2022-07-23T08:16:27;9.40;;;8.50;;
2438;SDS011;14509;47.992;7.848;2022-07-23T08:18:29;9.37;;;8.40;;
2438;SDS011;14509;47.992;7.848;2022-07-23T08:20:31;9.03;;;8.13;;
2438;SDS011;14509;47.992;7.848;2022-07-23T08:22:46;8.00;;;7.40;;
2438;SDS011;14509;47.992;7.848;2022-07-23T08:24:49;9.50;;;8.60;;
2438;SDS011;14509;47.992;7.848;2022-07-23T08:26:51;8.90;;;8.03;;
2438;SDS011;14509;47.992;7.848;2022-07-23T08:28:53;9.13;;;8.40;;
2438;SDS011;14509;47.992;7.848;2022-07-23T08:30:56;10.17;;;8.30;;
2438;SDS011;14509;47.992;7.848;2022-07-23T08:32:59;8.23;;;7.43;;
2438;SDS011;14509;47.992;7.848;2022-07-23T08:35:02;8.30;;;7.60;;
2438;SDS011;14509;47.992;7.848;2022-07-23T08:37:04;9.03;;;7.77;;
2438;SDS011;14509;47.992;7.848;2022-07-23T08:39:06;8.33;;;7.63;;
2438;SDS011;14509;47.992;7.848;2022-07-23T08:41:08;8.07;;;7.37;;
2438;SDS011;14509;47.992;7.848;2022-07-23T08:43:10;7.80;;;7.10;;
2438;SDS011;14509;47.992;7.848;2022-07-23T08:45:13;8.53;;;7.37;;
2438;SDS011;14509;47.992;7.848;2022-07-23T08:47:22;9.10;;;8.40;;
2438;SDS011;14509;47.992;7.848;2022-07-23T08:49:24;9.07;;;8.20;;
2438;SDS011;14509;47.992;7.848;2022-07-23T08:51:27;7.70;;;7.07;;
2438;SDS011;14509;47.992;7.848;2022-07-23T08:53:30;7.33;;;6.63;;
2438;SDS011;14509;47.992;7.848;2022-07-23T08:55:33;7.70;;;6.83;;
2438;SDS011;14509;47.992;7.848;2022-07-23T08:57:35;7.50;;;6.67;;
2438;SDS011;14509;47.992;7.848;2022-07-23T08:59:38;8.03;;;7.23;;
2438;SDS011;14509;47.992;7.848;2022-07-23T09:01:40;7.63;;;6.93;;
2438;SDS011;14509;47.992;7.848;2022-07-23T09:03:43;7.63;;;6.93;;
2438;SDS011;14509;47.992;7.848;2022-07-23T09:05:46;7.80;;;7.10;;
2438;SDS011;14509;47.992;7.848;2022-07-23T09:08:05;7.60;;;6.90;;
2438;SDS011;14509;47.992;7.848;2022-07-23T09:10:09;8.10;;;6.50;;
2438;SDS011;14509;47.992;7.848;2022-07-23T09:12:12;7.17;;;6.57;;
2438;SDS011;14509;47.992;7.848;2022-07-23T09:14:14;8.10;;;7.00;;
2438;SDS011;14509;47.992;7.848;2022-07-23T09:16:18;7.70;;;6.90;;
2438;SDS011;14509;47.992;7.848;2022-07-23T09:18:30;8.73;;;7.90;;
2438;SDS011;14509;47.992;7.848;2022-07-23T09:20:35;7.77;;;7.03;;
2438;SDS011;14509;47.992;7.848;2022-07-23T09:22:37;8.90;;;7.43;;
2438;SDS011;14509;47.992;7.848;2022-07-23T09:24:39;9.00;;;8.10;;
2438;SDS011;14509;47.992;7.848;2022-07-23T09:27:06;9.13;;;8.33;;
2438;SDS011;14509;47.992;7.848;2022-07-23T09:29:09;8.53;;;7.73;;
2438;SDS011;14509;47.992;7.848;2022-07-23T09:31:13;8.93;;;8.13;;
2438;SDS011;14509;47.992;7.848;2022-07-23T09:33:15;9.00;;;8.10;;
2438;SDS011;14509;47.992;7.848;2022-07-23T09:35:18;9.27;;;8.37;;
2438;SDS011;14509;47.992;7.848;2022-07-23T09:37:21;8.77;;;7.63;;
2438;SDS011;14509;47.992;7.848;2022-07-23T09:39:27;8.60;;;7.80;;
2438;SDS011;14509;47.992;7.848;2022-07-23T09:41:35;8.93;;;8.23;;
2438;SDS011;14509;47.992;7.848;2022-07-23T09:43:38;8.83;;;8.00;;
2438;SDS011;14509;47.992;7.848;2022-07-23T09:45:40;8.07;;;7.30;;
2438;SDS011;14509;47.992;7.848;2022-07-23T09:47:42;8.00;;;7.20;;
2438;SDS011;14509;47.992;7.848;2022-07-23T09:49:57;9.17;;;8.20;;
2438;SDS011;14509;47.992;7.848;2022-07-23T09:52:01;8.80;;;8.00;;
2438;SDS011;14509;47.992;7.848;2022-07-23T09:54:04;8.57;;;7.77;;
2438;SDS011;14509;47.992;7.848;2022-07-23T09:56:07;9.83;;;7.93;;
2438;SDS011;14509;47.992;7.848;2022-07-23T09:58:09;8.80;;;8.00;;
2438;SDS011;14509;47.992;7.848;2022-07-23T10:00:12;8.80;;;8.00;;
2438;SDS011;14509;47.992;7.848;2022-07-23T10:02:15;8.60;;;7.90;;
2438;SDS011;14509;47.992;7.848;2022-07-23T10:04:47;8.10;;;7.40;;
2438;SDS011;14509;47.992;7.848;2022-07-23T10:07:01;8.13;;;7.43;;
2438;SDS011;14509;47.992;7.848;2022-07-23T10:09:26;8.77;;;7.97;;
2438;SDS011;14509;47.992;7.848;2022-07-23T10:12:09;7.80;;;7.10;;
2438;SDS011;14509;47.992;7.848;2022-07-23T10:14:31;7.70;;;7.00;;
2438;SDS011;14509;47.992;7.848;2022-07-23T10:16:37;8.90;;;8.00;;
2438;SDS011;14509;47.992;7.848;2022-07-23T10:18:40;8.17;;;7.30;;
2438;SDS011;14509;47.992;7.848;2022-07-23T10:20:42;7.90;;;7.20;;
2438;SDS011;14509;47.992;7.848;2022-07-23T10:22:46;8.57;;;7.80;;
2438;SDS011;14509;47.992;7.848;2022-07-23T10:25:06;8.43;;;7.63;;
2438;SDS011;14509;47.992;7.848;2022-07-23T10:27:20;7.87;;;7.20;;
2438;SDS011;14509;47.992;7.848;2022-07-23T10:29:41;8.73;;;7.77;;
2438;SDS011;14509;47.992;7.848;2022-07-23T10:31:50;7.73;;;7.03;;
2438;SDS011;14509;47.992;7.848;2022-07-23T10:34:12;12.53;;;7.57;;
2438;SDS011;14509;47.992;7.848;2022-07-23T10:36:22;7.90;;;7.10;;
2438;SDS011;14509;47.992;7.848;2022-07-23T10:38:30;7.70;;;7.00;;
2438;SDS011;14509;47.992;7.848;2022-07-23T10:40:49;7.50;;;6.80;;
2438;SDS011;14509;47.992;7.848;2022-07-23T10:42:57;6.90;;;6.30;;
2438;SDS011;14509;47.992;7.848;2022-07-23T10:45:01;7.90;;;7.07;;
2438;SDS011;14509;47.992;7.848;2022-07-23T10:47:25;8.33;;;7.60;;
2438;SDS011;14509;47.992;7.848;2022-07-23T10:49:48;8.13;;;7.47;;
2438;SDS011;14509;47.992;7.848;2022-07-23T10:54:21;8.47;;;7.70;;
2438;SDS011;14509;47.992;7.848;2022-07-23T10:59:06;8.00;;;7.20;;
2438;SDS011;14509;47.992;7.848;2022-07-23T11:03:35;8.93;;;8.13;;
2438;SDS011;14509;47.992;7.848;2022-07-23T11:05:41;9.20;;;7.97;;
2438;SDS011;14509;47.992;7.848;2022-07-23T11:10:13;11.60;;;10.13;;
2438;SDS011;14509;47.992;7.848;2022-07-23T11:12:37;10.93;;;9.80;;
2438;SDS011;14509;47.992;7.848;2022-07-23T11:14:57;11.80;;;9.07;;
2438;SDS011;14509;47.992;7.848;2022-07-23T11:17:00;8.83;;;8.03;;
2438;SDS011;14509;47.992;7.848;2022-07-23T11:19:05;9.80;;;8.97;;
2438;SDS011;14509;47.992;7.848;2022-07-23T11:23:57;10.13;;;9.13;;
2438;SDS011;14509;47.992;7.848;2022-07-23T11:26:00;14.60;;;11.80;;
2438;SDS011;14509;47.992;7.848;2022-07-23T11:28:15;10.63;;;7.87;;
2438;SDS011;14509;47.992;7.848;2022-07-23T11:32:39;9.60;;;8.60;;
2438;SDS011;14509;47.992;7.848;2022-07-23T11:34:43;13.83;;;10.13;;
2438;SDS011;14509;47.992;7.848;2022-07-23T11:36:50;8.67;;;7.90;;
2438;SDS011;14509;47.992;7.848;2022-07-23T11:38:52;8.57;;;7.87;;
2438;SDS011;14509;47.992;7.848;2022-07-23T11:40:55;9.47;;;8.63;;
2438;SDS011;14509;47.992;7.848;2022-07-23T11:42:59;10.33;;;8.30;;
2438;SDS011;14509;47.992;7.848;2022-07-23T11:45:04;10.20;;;8.13;;
2438;SDS011;14509;47.992;7.848;2022-07-23T11:47:08;10.30;;;9.20;;
2438;SDS011;14509;47.992;7.848;2022-07-23T11:49:11;9.77;;;8.93;;
2438;SDS011;14509;47.992;7.848;2022-07-23T11:51:24;11.30;;;10.10;;
2438;SDS011;14509;47.992;7.848;2022-07-23T11:53:28;11.33;;;8.53;;
2438;SDS011;14509;47.992;7.848;2022-07-23T11:55:31;9.50;;;8.40;;
2438;SDS011;14509;47.992;7.848;2022-07-23T11:57:34;10.90;;;8.20;;
2438;SDS011;14509;47.992;7.848;2022-07-23T11:59:38;10.10;;;9.20;;
2438;SDS011;14509;47.992;7.848;2022-07-23T12:04:00;8.90;;;8.20;;
2438;SDS011;14509;47.992;7.848;2022-07-23T12:06:02;9.30;;;8.60;;
2438;SDS011;14509;47.992;7.848;2022-07-23T12:08:04;10.90;;;8.90;;
2438;SDS011;14509;47.992;7.848;2022-07-23T12:10:09;11.23;;;9.10;;
2438;SDS011;14509;47.992;7.848;2022-07-23T12:12:12;9.40;;;8.40;;
2438;SDS011;14509;47.992;7.848;2022-07-23T12:14:14;9.63;;;8.83;;
2438;SDS011;14509;47.992;7.848;2022-07-23T12:16:16;9.63;;;8.73;;
2438;SDS011;14509;47.992;7.848;2022-07-23T12:18:21;9.53;;;8.63;;
2438;SDS011;14509;47.992;7.848;2022-07-23T12:20:25;8.90;;;8.07;;
2438;SDS011;14509;47.992;7.848;2022-07-23T12:22:33;10.80;;;8.90;;
2438;SDS011;14509;47.992;7.848;2022-07-23T12:27:09;8.70;;;8.00;;
2438;SDS011;14509;47.992;7.848;2022-07-23T12:29:12;9.63;;;8.83;;
2438;SDS011;14509;47.992;7.848;2022-07-23T12:31:14;9.13;;;8.23;;
2438;SDS011;14509;47.992;7.848;2022-07-23T12:33:22;10.87;;;9.10;;
2438;SDS011;14509;47.992;7.848;2022-07-23T12:35:30;9.80;;;9.00;;
2438;SDS011;14509;47.992;7.848;2022-07-23T12:37:35;14.63;;;10.83;;
2438;SDS011;14509;47.992;7.848;2022-07-23T12:39:38;9.07;;;8.27;;
2438;SDS011;14509;47.992;7.848;2022-07-23T12:41:53;9.87;;;8.87;;
2438;SDS011;14509;47.992;7.848;2022-07-23T12:43:56;9.00;;;8.20;;
2438;SDS011;14509;47.992;7.848;2022-07-23T12:46:02;10.60;;;9.80;;
2438;SDS011;14509;47.992;7.848;2022-07-23T12:48:05;8.43;;;7.70;;
2438;SDS011;14509;47.992;7.848;2022-07-23T12:50:09;8.17;;;7.57;;
2438;SDS011;14509;47.992;7.848;2022-07-23T12:52:34;8.93;;;8.23;;
2438;SDS011;14509;47.992;7.848;2022-07-23T12:54:36;9.97;;;9.07;;
2438;SDS011;14509;47.992;7.848;2022-07-23T12:56:39;9.27;;;8.47;;
2438;SDS011;14509;47.992;7.848;2022-07-23T12:58:45;8.60;;;8.00;;